Time;durP1;ratioP1;P1;durP2;ratioP2;P2;SDS_P1;SDS_P2;PMS_P1;PMS_P2;Temp;Humidity;BMP_temperature;BMP_pressure;BME280_temperature;BME280_humidity;BME280_pressure;Samples;Min_cycle;Max_cycle;Signal;HPM_P1;HPM_P2
2023/06/08 00:02:11;;;;;;;1999.90;999.90;;;;;;;15.91;100.00;97873.09;5074382;28;20477;-73
2023/06/08 00:04:40;;;;;;;1999.90;999.90;;;;;;;15.86;100.00;97872.50;5074417;28;20043;-73
2023/06/08 00:07:08;;;;;;;1999.90;999.90;;;;;;;15.90;100.00;97874.28;5056275;28;20060;-73
2023/06/08 00:09:37;;;;;;;1999.90;999.90;;;;;;;15.92;100.00;97874.72;5055989;28;20431;-72
2023/06/08 00:12:03;;;;;;;1999.90;999.90;;;;;;;15.93;100.00;97873.59;5074070;28;20039;-72
2023/06/08 00:14:30;;;;;;;1999.90;999.90;;;;;;;15.92;100.00;97869.22;5074379;28;20036;-73
2023/06/08 00:16:56;;;;;;;1999.90;999.90;;;;;;;15.92;100.00;97860.13;5074109;28;20107;-73
2023/06/08 00:19:22;;;;;;;1999.90;999.90;;;;;;;15.92;100.00;97871.97;5056024;28;20028;-73
2023/06/08 00:25:09;;;;;;;1999.90;999.90;;;;;;;15.94;100.00;97866.13;5074116;28;20074;-75
2023/06/08 00:27:35;;;;;;;1999.90;999.90;;;;;;;15.96;100.00;97875.69;5073736;28;20037;-74
2023/06/08 00:30:00;;;;;;;1999.90;999.90;;;;;;;15.93;100.00;97872.78;5087026;28;20024;-74
2023/06/08 00:32:27;;;;;;;1999.90;999.90;;;;;;;16.04;100.00;97877.59;5093445;28;20038;-73
2023/06/08 00:34:52;;;;;;;1999.90;999.90;;;;;;;16.05;100.00;97868.19;5093879;28;20122;-73
2023/06/08 00:37:18;;;;;;;1999.90;999.90;;;;;;;16.09;100.00;97871.09;5093443;28;20146;-73
2023/06/08 00:39:43;;;;;;;1999.90;999.90;;;;;;;16.12;100.00;97872.38;5094006;28;20051;-73
2023/06/08 00:42:08;;;;;;;1999.90;999.90;;;;;;;16.04;100.00;97866.56;5075448;28;20015;-75
2023/06/08 00:44:33;;;;;;;1999.90;999.90;;;;;;;16.14;100.00;97867.31;5094190;28;20104;-74
2023/06/08 00:46:59;;;;;;;1999.90;999.90;;;;;;;16.11;100.00;97855.00;5093649;28;20036;-74
2023/06/08 00:49:25;;;;;;;1999.90;999.90;;;;;;;16.22;100.00;97858.19;5093606;28;20107;-74
2023/06/08 00:51:51;;;;;;;1999.90;999.90;;;;;;;16.15;100.00;97861.47;5093398;28;20521;-73
2023/06/08 00:54:17;;;;;;;1999.90;999.90;;;;;;;16.11;100.00;97859.69;5093451;28;20472;-72
2023/06/08 00:56:48;;;;;;;1999.90;999.90;;;;;;;16.03;100.00;97848.41;5093499;28;20393;-72
2023/06/08 00:59:14;;;;;;;1999.90;999.90;;;;;;;15.99;100.00;97858.47;5093521;28;20044;-72
2023/06/08 01:01:40;;;;;;;1999.90;999.90;;;;;;;15.98;100.00;97851.34;5093307;28;20110;-72
2023/06/08 01:04:06;;;;;;;1999.90;999.90;;;;;;;16.00;100.00;97854.59;5093374;28;20031;-72
2023/06/08 01:06:35;;;;;;;1999.90;999.90;;;;;;;15.89;100.00;97852.50;5093422;28;20028;-72
2023/06/08 01:09:23;;;;;;;1999.90;999.90;;;;;;;15.86;100.00;97842.97;5092725;28;20031;-73
2023/06/08 01:12:10;;;;;;;1999.90;999.90;;;;;;;15.87;100.00;97852.88;5093332;28;20032;-73
2023/06/08 01:15:13;;;;;;;1999.90;999.90;;;;;;;15.87;100.00;97852.06;5075431;28;20020;-72
2023/06/08 01:17:48;;;;;;;1999.90;999.90;;;;;;;15.80;100.00;97849.00;5074901;28;20036;-72
2023/06/08 01:20:34;;;;;;;1999.90;999.90;;;;;;;15.82;100.00;97846.72;5058400;28;20127;-72
2023/06/08 01:23:25;;;;;;;1999.90;999.90;;;;;;;15.82;100.00;97843.97;5074724;28;20450;-72
2023/06/08 01:25:55;;;;;;;1999.90;999.90;;;;;;;15.85;100.00;97833.06;5074977;28;20039;-73
2023/06/08 01:28:22;;;;;;;1999.90;999.90;;;;;;;15.74;100.00;97826.31;5092728;28;20020;-72
2023/06/08 01:30:48;;;;;;;1999.90;999.90;;;;;;;15.72;100.00;97831.34;5074759;28;20032;-72
2023/06/08 01:33:27;;;;;;;1999.90;999.90;;;;;;;15.71;100.00;97815.94;5077594;28;20020;-74
2023/06/08 01:36:07;;;;;;;1999.90;999.90;;;;;;;15.63;100.00;97814.03;5081082;28;20036;-72
2023/06/08 01:38:44;;;;;;;1999.90;999.90;;;;;;;15.67;100.00;97811.41;5074715;28;20477;-72
2023/06/08 01:41:17;;;;;;;1999.90;999.90;;;;;;;15.63;100.00;97813.25;5092665;28;20034;-73
2023/06/08 01:43:44;;;;;;;1999.90;999.90;;;;;;;15.54;100.00;97810.50;5092896;28;20031;-73
2023/06/08 01:46:12;;;;;;;1999.90;999.90;;;;;;;15.49;100.00;97808.75;5092485;28;20068;-73
2023/06/08 01:48:40;;;;;;;1999.90;999.90;;;;;;;15.41;100.00;97797.72;5074262;28;20028;-73
2023/06/08 01:51:07;;;;;;;1999.90;999.90;;;;;;;15.32;100.00;97807.94;5092415;28;20024;-72
2023/06/08 01:53:33;;;;;;;1999.90;999.90;;;;;;;15.33;100.00;97804.06;5092450;28;20031;-73
2023/06/08 01:55:58;;;;;;;1999.90;999.90;;;;;;;15.22;100.00;97813.84;5074395;28;20032;-72
2023/06/08 01:58:24;;;;;;;1999.90;999.90;;;;;;;15.15;100.00;97794.25;5073847;28;20036;-72
2023/06/08 02:00:49;;;;;;;1999.90;999.90;;;;;;;15.27;100.00;97802.63;5092266;28;20020;-72
2023/06/08 02:03:14;;;;;;;1999.90;999.90;;;;;;;15.27;100.00;97808.13;5092417;28;20024;-73
2023/06/08 02:05:40;;;;;;;1999.90;999.90;;;;;;;15.23;100.00;97801.66;5092205;28;20060;-73
2023/06/08 02:08:05;;;;;;;1999.90;999.90;;;;;;;15.14;100.00;97781.59;5073928;28;20506;-73
2023/06/08 02:10:31;;;;;;;1999.90;999.90;;;;;;;15.14;100.00;97784.34;5092191;28;20028;-73
2023/06/08 02:12:56;;;;;;;1999.90;999.90;;;;;;;15.13;100.00;97804.78;5091914;28;20027;-73
2023/06/08 02:15:21;;;;;;;1999.90;999.90;;;;;;;15.16;100.00;97796.66;5092583;28;20024;-73
2023/06/08 02:17:47;;;;;;;1999.90;999.90;;;;;;;15.13;100.00;97788.25;5092021;28;20031;-73
2023/06/08 02:20:13;;;;;;;1999.90;999.90;;;;;;;15.13;100.00;97791.03;5072674;28;20032;-73
2023/06/08 02:22:38;;;;;;;1999.90;999.90;;;;;;;15.12;100.00;97792.16;5053230;28;20029;-74
2023/06/08 02:25:05;;;;;;;1999.90;999.90;;;;;;;15.10;100.00;97797.19;5071089;28;20028;-73
2023/06/08 02:27:35;;;;;;;1999.90;999.90;;;;;;;15.09;100.00;97779.03;5061483;28;20046;-72
2023/06/08 02:30:01;;;;;;;1999.90;999.90;;;;;;;15.16;100.00;97782.09;5033146;28;20029;-73
2023/06/08 02:32:26;;;;;;;1999.90;999.90;;;;;;;15.18;100.00;97793.59;5051057;28;20028;-73
2023/06/08 02:34:55;;;;;;;1999.90;999.90;;;;;;;15.03;100.00;97781.94;5033167;28;20739;-72
2023/06/08 02:37:22;;;;;;;1999.90;999.90;;;;;;;15.02;100.00;97794.13;5032989;28;20013;-73
2023/06/08 02:39:47;;;;;;;1999.90;999.90;;;;;;;15.02;100.00;97791.38;5060628;28;20032;-72
2023/06/08 02:42:13;;;;;;;1999.90;999.90;;;;;;;15.03;100.00;97792.97;5070820;28;20081;-73
2023/06/08 02:44:38;;;;;;;1999.90;999.90;;;;;;;15.03;100.00;97781.16;5071309;28;20517;-72
2023/06/08 02:47:04;;;;;;;1999.90;999.90;;;;;;;14.93;100.00;97787.81;5070698;28;20067;-73
2023/06/08 02:49:29;;;;;;;1999.90;999.90;;;;;;;14.99;100.00;97786.50;5070589;28;20539;-73
2023/06/08 02:51:54;;;;;;;1999.90;999.90;;;;;;;14.81;100.00;97779.44;5052781;28;20024;-73
2023/06/08 02:54:20;;;;;;;1999.90;999.90;;;;;;;14.89;100.00;97792.38;5070765;28;20131;-73
2023/06/08 02:56:46;;;;;;;1999.90;999.90;;;;;;;14.86;100.00;97782.00;5070302;28;20036;-72
2023/06/08 02:59:12;;;;;;;1999.90;999.90;;;;;;;14.81;100.00;97789.63;5052605;28;20032;-72
2023/06/08 03:01:37;;;;;;;1999.90;999.90;;;;;;;14.74;100.00;97779.13;5052761;28;20165;-72
2023/06/08 03:04:03;;;;;;;1999.90;999.90;;;;;;;14.77;100.00;97783.97;5070738;28;20033;-73
2023/06/08 03:06:33;;;;;;;1999.90;999.90;;;;;;;14.66;100.00;97765.38;5070475;28;20029;-73
2023/06/08 03:08:58;;;;;;;1999.90;999.90;;;;;;;14.75;100.00;97785.44;5065182;28;20161;-73
2023/06/08 03:11:23;;;;;;;1999.90;999.90;;;;;;;14.80;100.00;97793.50;5057759;28;20033;-73
2023/06/08 03:13:50;;;;;;;1999.90;999.90;;;;;;;14.78;100.00;97787.53;5032341;28;20051;-73
2023/06/08 03:16:16;;;;;;;1999.90;999.90;;;;;;;14.80;100.00;97783.31;5059894;28;20111;-73
2023/06/08 03:18:42;;;;;;;1999.90;999.90;;;;;;;14.79;100.00;97787.19;5070194;28;20456;-73
2023/06/08 03:21:07;;;;;;;1999.90;999.90;;;;;;;14.76;100.00;97782.34;5069749;28;20025;-73
2023/06/08 03:23:35;;;;;;;1999.90;999.90;;;;;;;14.77;100.00;97781.22;5070001;28;20366;-74
2023/06/08 03:26:01;;;;;;;1999.90;999.90;;;;;;;14.76;100.00;97787.84;5052208;28;20024;-73
2023/06/08 03:28:26;;;;;;;1999.90;999.90;;;;;;;14.76;100.00;97787.84;5070124;28;20039;-72
2023/06/08 03:30:52;;;;;;;1999.90;999.90;;;;;;;14.79;100.00;97792.69;5051573;28;20423;-72
2023/06/08 03:33:19;;;;;;;1999.90;999.90;;;;;;;14.84;100.00;97787.03;5070231;28;20107;-73
2023/06/08 03:35:45;;;;;;;1999.90;999.90;;;;;;;14.84;100.00;97787.03;5070187;28;20401;-73
2023/06/08 03:38:10;;;;;;;1999.90;999.90;;;;;;;14.80;100.00;97793.50;5070114;28;20017;-73
2023/06/08 03:40:35;;;;;;;1999.90;999.90;;;;;;;14.79;100.00;97792.69;5070300;28;20112;-73
2023/06/08 03:43:00;;;;;;;1999.90;999.90;;;;;;;14.74;100.00;97790.13;5077076;28;20024;-75
2023/06/08 03:45:26;;;;;;;1999.90;999.90;;;;;;;14.73;100.00;97782.19;5074902;28;20051;-73
2023/06/08 03:47:51;;;;;;;1999.90;999.90;;;;;;;14.76;100.00;97787.03;5070316;28;20035;-73
2023/06/08 03:50:16;;;;;;;1999.90;999.90;;;;;;;14.87;100.00;97791.06;5069777;28;20032;-72
2023/06/08 03:52:43;;;;;;;1999.90;999.90;;;;;;;14.81;100.00;97790.44;5070114;28;20035;-72
2023/06/08 03:55:09;;;;;;;1999.90;999.90;;;;;;;14.79;100.00;97784.44;5074571;28;20028;-72
2023/06/08 03:57:35;;;;;;;1999.90;999.90;;;;;;;14.89;100.00;97795.13;5052229;28;20047;-72
2023/06/08 04:00:01;;;;;;;1999.90;999.90;;;;;;;14.90;100.00;97787.66;5036504;28;20025;-72
2023/06/08 04:02:26;;;;;;;1999.90;999.90;;;;;;;14.85;100.00;97780.38;5032024;28;20430;-72
2023/06/08 04:04:53;;;;;;;1999.90;999.90;;;;;;;14.93;100.00;97787.00;5050030;28;20020;-73
2023/06/08 04:07:20;;;;;;;1999.90;999.90;;;;;;;14.91;100.00;97784.56;5049990;28;20029;-73
2023/06/08 04:09:46;;;;;;;1999.90;999.90;;;;;;;14.87;100.00;97789.13;5049454;28;20359;-74
2023/06/08 04:12:11;;;;;;;1999.90;999.90;;;;;;;15.03;100.00;97787.44;5031773;28;20037;-72
2023/06/08 04:14:36;;;;;;;1999.90;999.90;;;;;;;15.05;100.00;97775.31;5049262;28;20468;-73
2023/06/08 04:17:04;;;;;;;1999.90;999.90;;;;;;;15.28;100.00;97784.97;5049988;28;20033;-75
2023/06/08 04:19:29;;;;;;;1999.90;999.90;;;;;;;15.47;100.00;97790.91;5015483;28;20447;-73
2023/06/08 04:21:56;;;;;;;1999.90;999.90;;;;;;;15.53;100.00;97795.13;5049717;28;20462;-73
2023/06/08 04:24:25;;;;;;;1999.90;999.90;;;;;;;15.53;100.00;97789.59;5049508;28;20021;-74
2023/06/08 04:26:50;;;;;;;1999.90;999.90;;;;;;;15.61;100.00;97794.25;5031472;28;20025;-73
2023/06/08 04:29:16;;;;;;;1999.90;999.90;;;;;;;15.50;100.00;97793.03;5031727;28;20032;-73
2023/06/08 04:31:41;;;;;;;1999.90;999.90;;;;;;;15.48;100.00;97792.53;5031694;28;20029;-75
2023/06/08 04:34:08;;;;;;;1999.90;999.90;;;;;;;15.62;100.00;97801.41;5049671;28;20025;-74
2023/06/08 04:36:34;;;;;;;1999.90;999.90;;;;;;;15.57;100.00;97789.75;5049490;28;20025;-74
2023/06/08 04:39:00;;;;;;;1999.90;999.90;;;;;;;15.68;100.00;97807.53;5049361;28;20482;-74
2023/06/08 04:41:25;;;;;;;1999.90;999.90;;;;;;;15.71;100.00;97812.38;5031473;28;20021;-74
2023/06/08 04:43:52;;;;;;;1999.90;999.90;;;;;;;15.79;100.00;97806.00;5057854;28;20017;-74
2023/06/08 04:46:17;;;;;;;1999.90;999.90;;;;;;;15.79;100.00;97808.75;5067883;28;20060;-75
2023/06/08 04:48:43;;;;;;;1999.90;999.90;;;;;;;15.81;100.00;97806.50;5072030;28;20485;-74
2023/06/08 04:51:09;;;;;;;1999.90;999.90;;;;;;;15.80;100.00;97818.66;5053897;28;20125;-74
2023/06/08 04:53:35;;;;;;;1999.90;999.90;;;;;;;15.76;100.00;97820.44;5035111;28;20547;-71
2023/06/08 04:56:02;;;;;;;1999.90;999.90;;;;;;;15.75;100.00;97816.91;5053491;28;20029;-74
2023/06/08 04:58:29;;;;;;;1999.90;999.90;;;;;;;15.80;100.00;97821.41;5053017;28;20393;-75
2023/06/08 05:00:55;;;;;;;1999.90;999.90;;;;;;;15.84;100.00;97820.44;5052632;28;20040;-74
2023/06/08 05:03:21;;;;;;;1999.90;999.90;;;;;;;15.81;100.00;97807.31;5052820;28;20036;-74
2023/06/08 05:05:47;;;;;;;1999.90;999.90;;;;;;;15.82;100.00;97814.41;5053010;28;20523;-73
2023/06/08 05:08:12;;;;;;;1999.90;999.90;;;;;;;15.83;100.00;97810.53;5039958;28;20032;-74
2023/06/08 05:10:38;;;;;;;1999.90;999.90;;;;;;;16.00;100.00;97815.97;5061129;28;20033;-73
2023/06/08 05:13:04;;;;;;;1999.90;999.90;;;;;;;15.98;100.00;97812.69;5054624;28;20424;-74
2023/06/08 05:15:32;;;;;;;1999.90;999.90;;;;;;;16.11;100.00;97819.13;5069867;28;20109;-75
2023/06/08 05:17:58;;;;;;;1999.90;999.90;;;;;;;16.42;100.00;97822.31;5052889;28;20433;-74
2023/06/08 05:20:26;;;;;;;1999.90;999.90;;;;;;;16.60;100.00;97818.28;5054091;28;20074;-74
2023/06/08 05:22:52;;;;;;;1999.90;999.90;;;;;;;16.77;100.00;97820.09;5061331;28;20024;-73
2023/06/08 05:25:17;;;;;;;1999.90;999.90;;;;;;;17.10;100.00;97820.91;5052354;28;20094;-75
2023/06/08 05:27:43;;;;;;;1999.90;999.90;;;;;;;17.16;100.00;97816.00;5057153;28;20470;-74
2023/06/08 05:30:09;;;;;;;1999.90;999.90;;;;;;;17.39;100.00;97810.84;5061834;28;20076;-76
2023/06/08 05:32:34;;;;;;;1999.90;999.90;;;;;;;17.70;100.00;97816.66;5061539;28;20029;-74
2023/06/08 05:35:00;;;;;;;1999.90;999.90;;;;;;;17.80;100.00;97816.22;5059901;28;20021;-75
2023/06/08 05:37:28;;;;;;;1999.90;999.90;;;;;;;17.72;100.00;97824.63;5040939;28;20032;-73
2023/06/08 05:39:53;;;;;;;1999.90;999.90;;;;;;;17.75;100.00;97816.47;5057859;28;20100;-75
2023/06/08 05:42:20;;;;;;;1999.90;999.90;;;;;;;17.95;100.00;97818.28;5060739;28;20025;-76
2023/06/08 05:44:45;;;;;;;1999.90;999.90;;;;;;;18.16;100.00;97824.53;5068761;28;20036;-72
2023/06/08 05:47:10;;;;;;;1999.90;999.90;;;;;;;18.32;100.00;97827.38;5084927;28;20044;-72
2023/06/08 05:49:36;;;;;;;1999.90;999.90;;;;;;;18.28;100.00;97825.66;5092961;28;20024;-72
2023/06/08 05:52:01;;;;;;;1999.90;999.90;;;;;;;18.12;100.00;97822.78;5098061;28;20467;-73
2023/06/08 05:54:26;;;;;;;1999.90;999.90;;;;;;;17.97;100.00;97824.31;5093971;28;20054;-71
2023/06/08 05:56:52;;;;;;;1999.90;999.90;;;;;;;17.98;100.00;97817.59;5092365;28;20428;-71
2023/06/08 05:59:17;;;;;;;1999.90;999.90;;;;;;;18.28;100.00;97831.19;5090228;28;20065;-71
2023/06/08 06:01:42;;;;;;;1999.90;999.90;;;;;;;18.66;100.00;97826.88;5091782;28;20135;-71
2023/06/08 06:04:08;;;;;;;1999.90;999.90;;;;;;;18.77;100.00;97826.34;5090421;28;20108;-72
2023/06/08 06:06:35;;;;;;;1999.90;999.90;;;;;;;18.65;100.00;97824.44;5090530;28;20038;-71
2023/06/08 06:09:01;;;;;;;1999.90;999.90;;;;;;;18.67;100.00;97827.66;5091859;28;20024;-71
2023/06/08 06:11:26;;;;;;;1999.90;999.90;;;;;;;18.69;100.00;97830.91;5091625;28;20024;-71
2023/06/08 06:13:52;;;;;;;1999.90;999.90;;;;;;;19.10;100.00;97841.59;5092381;28;20106;-71
2023/06/08 06:16:17;;;;;;;1999.90;999.90;;;;;;;19.69;100.00;97838.03;5091879;28;20370;-71
2023/06/08 06:18:46;;;;;;;1999.90;999.90;;;;;;;20.13;100.00;97839.56;5091880;28;20388;-71
2023/06/08 06:21:12;;;;;;;1999.90;999.90;;;;;;;19.98;100.00;97832.06;5090374;28;20064;-71
2023/06/08 06:23:38;;;;;;;1999.90;999.90;;;;;;;20.09;100.00;97841.44;5091544;28;20044;-72
2023/06/08 06:26:03;;;;;;;1999.90;999.90;;;;;;;20.06;100.00;97844.94;5091607;28;20455;-72
2023/06/08 06:28:29;;;;;;;1999.90;999.90;;;;;;;20.11;100.00;97844.66;5091635;28;20035;-72
2023/06/08 06:30:54;;;;;;;1999.90;999.90;;;;;;;19.93;100.00;97840.63;5090586;28;20480;-72
2023/06/08 06:33:20;;;;;;;1999.90;999.90;;;;;;;19.98;100.00;97837.59;5091808;28;20111;-70
2023/06/08 06:35:45;;;;;;;1999.90;999.90;;;;;;;20.46;100.00;97855.00;5091820;28;20115;-71
2023/06/08 06:38:11;;;;;;;1999.90;999.90;;;;;;;20.74;100.00;97850.09;5091676;28;20514;-73
2023/06/08 06:40:36;;;;;;;1999.90;999.90;;;;;;;21.16;100.00;97848.22;5090210;28;20063;-71
2023/06/08 06:43:01;;;;;;;1999.90;999.90;;;;;;;21.48;100.00;97853.63;5090310;28;20035;-71
2023/06/08 06:45:27;;;;;;;1999.90;999.90;;;;;;;21.88;100.00;97849.22;5088968;28;20028;-71
2023/06/08 06:47:52;;;;;;;1999.90;999.90;;;;;;;21.43;100.00;97851.13;5053859;28;20021;-71
2023/06/08 06:50:17;;;;;;;1999.90;999.90;;;;;;;21.86;100.00;97847.94;5070764;28;20123;-71
2023/06/08 06:52:44;;;;;;;1999.90;999.90;;;;;;;21.75;100.00;97852.50;5071237;28;20082;-71
2023/06/08 06:55:09;;;;;;;1999.90;999.90;;;;;;;21.76;100.00;97854.13;5070820;28;20056;-72
2023/06/08 06:57:36;;;;;;;1999.90;999.90;;;;;;;21.77;100.00;97845.38;5052815;28;20043;-71
2023/06/08 07:00:07;;;;;;;1999.90;999.90;;;;;;;21.62;100.00;97842.72;5053001;28;20025;-71
2023/06/08 07:02:33;;;;;;;1999.90;999.90;;;;;;;21.77;100.00;97842.59;5052876;28;20458;-71
2023/06/08 07:05:03;;;;;;;1999.90;999.90;;;;;;;21.93;100.00;97847.31;5070696;28;20104;-72
2023/06/08 07:07:28;;;;;;;1999.90;999.90;;;;;;;21.74;100.00;97848.13;5070305;28;20443;-71
2023/06/08 07:09:53;;;;;;;1999.90;999.90;;;;;;;21.62;100.00;97843.53;5070740;28;20024;-71
2023/06/08 07:12:19;;;;;;;1999.90;999.90;;;;;;;22.09;100.00;97848.75;5070876;28;20469;-72
2023/06/08 07:14:44;;;;;;;1999.90;999.90;;;;;;;22.45;100.00;97835.38;5053064;28;20425;-72
2023/06/08 07:17:11;;;;;;;1999.90;999.90;;;;;;;22.26;100.00;97845.47;5070852;28;20024;-73
2023/06/08 07:19:39;;;;;;;1999.90;999.90;;;;;;;22.47;100.00;97844.97;5052561;28;20033;-72
2023/06/08 07:22:05;;;;;;;1999.90;999.90;;;;;;;22.34;100.00;97841.59;5052563;28;20401;-71
2023/06/08 07:24:30;;;;;;;1999.90;999.90;;;;;;;22.57;100.00;97837.94;5052540;28;20536;-71
2023/06/08 07:26:56;;;;;;;1999.90;999.90;;;;;;;23.22;100.00;97852.38;5070402;28;20115;-71
2023/06/08 07:29:22;;;;;;;1999.90;999.90;;;;;;;23.05;100.00;97842.63;5052613;28;20379;-71
2023/06/08 07:31:47;;;;;;;1999.90;999.90;;;;;;;23.32;87.23;97844.13;5052558;28;20050;-71
2023/06/08 07:34:12;;;;;;;1999.90;999.90;;;;;;;23.55;83.29;97848.78;5070511;28;20059;-71
2023/06/08 07:36:38;;;;;;;1999.90;999.90;;;;;;;23.20;82.55;97846.38;5052488;28;20035;-72
2023/06/08 07:39:03;;;;;;;1999.90;999.90;;;;;;;23.05;83.45;97850.97;5070318;28;20394;-72
2023/06/08 07:41:29;;;;;;;1999.90;999.90;;;;;;;22.75;85.29;97839.00;5052477;28;20495;-72
2023/06/08 07:43:55;;;;;;;1999.90;999.90;;;;;;;23.69;79.87;97843.34;5070411;28;20145;-72
2023/06/08 07:46:21;;;;;;;1999.90;999.90;;;;;;;23.54;82.11;97844.38;5070749;28;20047;-72
2023/06/08 07:48:46;;;;;;;1999.90;999.90;;;;;;;23.16;84.41;97843.53;5070825;28;20044;-72
2023/06/08 07:51:11;;;;;;;1999.90;999.90;;;;;;;22.83;84.92;97835.16;5069830;28;20040;-72
2023/06/08 07:53:38;;;;;;;1999.90;999.90;;;;;;;22.35;87.06;97834.84;5070341;28;20470;-72
2023/06/08 07:56:04;;;;;;;1999.90;999.90;;;;;;;22.28;89.03;97836.72;5070314;28;20056;-71
2023/06/08 07:58:31;;;;;;;1999.90;999.90;;;;;;;23.45;82.86;97839.13;5070588;28;20024;-71
2023/06/08 08:00:57;;;;;;;1999.90;999.90;;;;;;;27.22;63.39;97847.31;5076245;28;20120;-72
2023/06/08 08:03:22;;;;;;;1999.90;999.90;;;;;;;28.46;56.74;97858.59;5072362;28;20133;-71
2023/06/08 08:05:49;;;;;;;1999.90;999.90;;;;;;;28.40;58.23;97862.25;5070447;28;20032;-71
2023/06/08 08:08:15;;;;;;;1999.90;999.90;;;;;;;28.08;57.57;97851.25;5052105;28;20081;-71
2023/06/08 08:10:40;;;;;;;1999.90;999.90;;;;;;;28.78;55.09;97849.06;5069878;28;20024;-72
2023/06/08 08:13:05;;;;;;;1999.90;999.90;;;;;;;29.04;53.34;97840.69;5070139;28;20385;-72
2023/06/08 08:15:30;;;;;;;1999.90;999.90;;;;;;;29.80;52.58;97858.25;5070015;28;20530;-71
2023/06/08 08:17:56;;;;;;;1999.90;999.90;;;;;;;27.65;57.96;97837.47;5070808;28;20025;-72
2023/06/08 08:20:22;;;;;;;1999.90;999.90;;;;;;;26.95;60.99;97837.78;5074185;28;20120;-71
2023/06/08 08:22:47;;;;;;;1999.90;999.90;;;;;;;27.64;59.58;97841.50;5056086;28;20107;-72
2023/06/08 08:25:12;;;;;;;1999.90;999.90;;;;;;;28.19;58.29;97829.47;5056029;28;20024;-72
2023/06/08 08:27:38;;;;;;;1999.90;999.90;;;;;;;28.88;54.75;97842.53;5073879;28;20361;-72
2023/06/08 08:30:04;;;;;;;1999.90;999.90;;;;;;;30.56;48.88;97844.19;5073897;28;20032;-72
2023/06/08 08:32:29;;;;;;;1999.90;999.90;;;;;;;31.32;47.49;97848.00;5055292;28;20024;-71
2023/06/08 08:34:54;;;;;;;1999.90;999.90;;;;;;;30.90;48.45;97840.31;5073646;28;20024;-72
2023/06/08 08:37:20;;;;;;;1999.90;999.90;;;;;;;31.25;46.41;97840.47;5073818;28;20265;-72
2023/06/08 08:39:46;;;;;;;1999.90;999.90;;;;;;;31.71;45.16;97838.69;5055776;28;20285;-74
2023/06/08 08:42:16;;;;;;;1999.90;999.90;;;;;;;29.56;50.39;97832.03;5053609;28;20017;-72
2023/06/08 08:44:42;;;;;;;1999.90;999.90;;;;;;;30.82;47.52;97833.22;5053128;28;20036;-72
2023/06/08 08:47:10;;;;;;;1999.90;999.90;;;;;;;28.94;51.97;97835.19;5053411;28;20045;-77
2023/06/08 08:49:40;;;;;;;1999.90;999.90;;;;;;;28.51;53.64;97829.97;5053442;28;20021;-72
2023/06/08 08:52:08;;;;;;;1999.90;999.90;;;;;;;27.49;56.96;97822.31;5053447;28;20025;-71
2023/06/08 08:54:34;;;;;;;1999.90;999.90;;;;;;;26.95;59.49;97807.69;5053368;28;20474;-72
2023/06/08 08:57:00;;;;;;;1999.90;999.90;;;;;;;25.84;59.80;97804.59;5053547;28;20039;-72
2023/06/08 08:59:29;;;;;;;1999.90;999.90;;;;;;;27.73;56.49;97800.84;5035078;28;20032;-72
2023/06/08 09:01:56;;;;;;;1999.90;999.90;;;;;;;28.68;53.34;97812.16;5053444;28;20104;-72
2023/06/08 09:04:23;;;;;;;1999.90;999.90;;;;;;;30.26;47.71;97814.00;5053394;28;20025;-72
2023/06/08 09:06:49;;;;;;;1999.90;999.90;;;;;;;31.55;44.75;97818.81;5053162;28;20025;-72
2023/06/08 09:09:15;;;;;;;1999.90;999.90;;;;;;;30.07;47.46;97822.41;5035098;28;20102;-72
2023/06/08 09:12:00;;;;;;;1999.90;999.90;;;;;;;26.90;58.09;97793.28;5052981;28;20032;-72
2023/06/08 09:14:26;;;;;;;1999.90;999.90;;;;;;;27.58;56.86;97792.53;5053033;28;20032;-73
2023/06/08 09:16:53;;;;;;;1999.90;999.90;;;;;;;27.97;55.27;97794.28;5053105;28;20493;-72
2023/06/08 09:19:19;;;;;;;1999.90;999.90;;;;;;;25.16;63.98;97770.03;5035323;28;20021;-72
2023/06/08 09:21:45;;;;;;;1999.90;999.90;;;;;;;26.57;61.03;97775.69;5052917;28;20024;-71
2023/06/08 09:24:20;;;;;;;1999.90;999.90;;;;;;;26.48;61.49;97777.31;5052892;28;20033;-71
2023/06/08 09:26:56;;;;;;;1999.90;999.90;;;;;;;26.39;60.95;97762.91;5052762;28;20074;-72
2023/06/08 09:29:34;;;;;;;1999.90;999.90;;;;;;;26.37;62.89;97763.34;5052263;28;20057;-72
2023/06/08 09:32:01;;;;;;;1999.90;999.90;;;;;;;25.09;65.79;97763.63;5052503;28;20033;-74
2023/06/08 09:34:29;;;;;;;1999.90;999.90;;;;;;;25.74;65.08;97755.75;5052696;28;20086;-71
2023/06/08 09:37:07;;;;;;;1999.90;999.90;;;;;;;26.56;60.66;97771.28;5052551;28;20059;-72
2023/06/08 09:39:44;;;;;;;1999.90;999.90;;;;;;;27.48;58.49;97773.72;5052210;28;20032;-72
2023/06/08 09:42:10;;;;;;;1999.90;999.90;;;;;;;26.60;58.98;97768.47;5052390;28;20482;-72
2023/06/08 09:44:35;;;;;;;1999.90;999.90;;;;;;;27.18;56.96;97770.66;5052203;28;20084;-72
2023/06/08 09:47:21;;;;;;;1999.90;999.90;;;;;;;25.58;64.31;97751.72;5052313;28;20040;-72
2023/06/08 09:49:51;;;;;;;1999.90;999.90;;;;;;;26.28;61.26;97751.69;5052628;28;20032;-71
2023/06/08 09:52:24;;;;;;;1999.90;999.90;;;;;;;26.97;59.47;97762.34;5052355;28;20033;-72
2023/06/08 09:54:50;;;;;;;1999.90;999.90;;;;;;;26.98;58.55;97750.69;5052222;28;20025;-71
2023/06/08 09:57:20;;;;;;;1999.90;999.90;;;;;;;27.01;59.12;97744.25;5034387;28;20099;-71
2023/06/08 10:00:14;;;;;;;1999.90;999.90;;;;;;;27.09;58.82;97748.66;5051887;28;20036;-71
2023/06/08 10:03:07;;;;;;;1999.90;999.90;;;;;;;27.03;58.83;97741.84;5034048;28;20025;-72
2023/06/08 10:05:36;;;;;;;1999.90;999.90;;;;;;;26.97;59.50;97732.25;5051992;28;20432;-71
2023/06/08 10:08:02;;;;;;;1999.90;999.90;;;;;;;26.53;60.96;97735.59;5051997;28;20470;-71
2023/06/08 10:10:38;;;;;;;1999.90;999.90;;;;;;;26.61;61.29;97725.97;5055658;28;20044;-73
2023/06/08 10:13:07;;;;;;;1999.90;999.90;;;;;;;27.08;59.47;97709.72;5055796;28;20029;-72
2023/06/08 10:15:32;;;;;;;1999.90;999.90;;;;;;;29.29;52.49;97724.06;5034294;28;20048;-72
2023/06/08 10:18:02;;;;;;;1999.90;999.90;;;;;;;30.37;49.13;97731.94;5051943;28;20025;-71
2023/06/08 10:20:29;;;;;;;1999.90;999.90;;;;;;;30.82;47.51;97718.19;5051657;28;20525;-72
2023/06/08 10:22:57;;;;;;;1999.90;999.90;;;;;;;30.36;45.39;97723.91;5052037;28;20025;-71
2023/06/08 10:25:23;;;;;;;1999.90;999.90;;;;;;;31.08;44.05;97722.06;5052210;28;20021;-72
2023/06/08 10:27:51;;;;;;;1999.90;999.90;;;;;;;30.38;46.32;97710.16;5033895;28;20009;-72
2023/06/08 10:30:30;;;;;;;1999.90;999.90;;;;;;;30.74;45.59;97709.03;5051590;28;20029;-73
2023/06/08 10:33:08;;;;;;;1999.90;999.90;;;;;;;29.47;48.92;97699.22;5051481;28;20025;-71
2023/06/08 10:35:33;;;;;;;1999.90;999.90;;;;;;;28.26;54.65;97694.31;5051450;28;20036;-71
2023/06/08 10:38:11;;;;;;;1999.90;999.90;;;;;;;27.73;56.52;97688.38;5051371;28;20462;-72
2023/06/08 10:40:49;;;;;;;1999.90;999.90;;;;;;;27.27;58.57;97686.72;5032878;28;20032;-71
2023/06/08 10:43:15;;;;;;;1999.90;999.90;;;;;;;26.54;60.31;97680.28;5033448;28;20048;-72
2023/06/08 10:45:43;;;;;;;1999.90;999.90;;;;;;;26.51;61.01;97673.47;5033181;28;20068;-71
2023/06/08 10:48:14;;;;;;;1999.90;999.90;;;;;;;26.70;61.00;97674.19;5051200;28;20032;-71
2023/06/08 10:50:42;;;;;;;1999.90;999.90;;;;;;;26.41;62.18;97671.50;5050059;28;20025;-71
2023/06/08 10:53:08;;;;;;;1999.90;999.90;;;;;;;26.60;62.79;97659.81;5051089;28;20032;-71
2023/06/08 10:55:34;;;;;;;1999.90;999.90;;;;;;;26.72;62.62;97666.19;5051129;28;20025;-71